sensor_id;sensor_type;location;lat;lon;timestamp;pressure;altitude;pressure_sealevel;temperature;humidity
8717;BME280;4395;48.554;8.820;2023-03-13T00:01:47;95331.16;;;9.10;100.00
8717;BME280;4395;48.554;8.820;2023-03-13T00:03:51;95381.53;;;9.40;100.00
8717;BME280;4395;48.554;8.820;2023-03-13T00:05:56;95400.97;;;9.57;100.00
8717;BME280;4395;48.554;8.820;2023-03-13T00:07:59;95406.06;;;9.58;100.00
8717;BME280;4395;48.554;8.820;2023-03-13T00:10:02;95407.16;;;9.62;100.00
8717;BME280;4395;48.554;8.820;2023-03-13T00:12:06;95399.44;;;9.71;100.00
8717;BME280;4395;48.554;8.820;2023-03-13T00:14:09;95299.19;;;8.98;100.00
8717;BME280;4395;48.554;8.820;2023-03-13T00:16:15;95433.75;;;9.64;100.00
8717;BME280;4395;48.554;8.820;2023-03-13T00:18:18;95407.44;;;9.61;100.00
8717;BME280;4395;48.554;8.820;2023-03-13T00:20:21;95416.03;;;9.63;100.00
8717;BME280;4395;48.554;8.820;2023-03-13T00:22:23;95387.00;;;9.55;100.00
8717;BME280;4395;48.554;8.820;2023-03-13T00:24:26;95415.50;;;9.66;100.00
8717;BME280;4395;48.554;8.820;2023-03-13T00:26:29;95415.00;;;9.69;100.00
8717;BME280;4395;48.554;8.820;2023-03-13T00:28:33;95421.47;;;9.73;100.00
8717;BME280;4395;48.554;8.820;2023-03-13T00:30:36;95411.84;;;9.77;100.00
8717;BME280;4395;48.554;8.820;2023-03-13T00:32:43;95368.72;;;9.47;100.00
8717;BME280;4395;48.554;8.820;2023-03-13T00:34:46;95365.75;;;9.48;100.00
8717;BME280;4395;48.554;8.820;2023-03-13T00:36:49;95360.09;;;9.45;100.00
8717;BME280;4395;48.554;8.820;2023-03-13T00:38:53;95399.91;;;9.58;100.00
8717;BME280;4395;48.554;8.820;2023-03-13T00:41:00;95395.97;;;9.71;100.00
8717;BME280;4395;48.554;8.820;2023-03-13T00:43:03;95397.06;;;9.75;100.00
8717;BME280;4395;48.554;8.820;2023-03-13T00:45:07;95367.69;;;9.53;100.00
8717;BME280;4395;48.554;8.820;2023-03-13T00:47:10;95404.28;;;9.74;100.00
8717;BME280;4395;48.554;8.820;2023-03-13T00:49:14;95400.00;;;9.73;100.00
8717;BME280;4395;48.554;8.820;2023-03-13T00:51:18;95398.69;;;9.76;100.00
8717;BME280;4395;48.554;8.820;2023-03-13T00:53:22;95390.38;;;9.77;100.00
8717;BME280;4395;48.554;8.820;2023-03-13T00:55:24;95286.38;;;9.05;100.00
8717;BME280;4395;48.554;8.820;2023-03-13T00:57:27;95351.03;;;9.51;100.00
8717;BME280;4395;48.554;8.820;2023-03-13T00:59:30;95390.88;;;9.74;100.00
8717;BME280;4395;48.554;8.820;2023-03-13T01:01:34;95381.72;;;9.70;100.00
8717;BME280;4395;48.554;8.820;2023-03-13T01:03:38;95349.16;;;9.51;100.00
8717;BME280;4395;48.554;8.820;2023-03-13T01:05:42;95250.84;;;8.83;100.00
8717;BME280;4395;48.554;8.820;2023-03-13T01:07:45;95383.63;;;9.75;100.00
8717;BME280;4395;48.554;8.820;2023-03-13T01:09:49;95374.50;;;9.71;100.00
8717;BME280;4395;48.554;8.820;2023-03-13T01:11:52;95372.09;;;9.74;100.00
8717;BME280;4395;48.554;8.820;2023-03-13T01:13:57;95370.44;;;9.68;100.00
8717;BME280;4395;48.554;8.820;2023-03-13T01:16:03;95374.19;;;9.67;100.00
8717;BME280;4395;48.554;8.820;2023-03-13T01:18:07;95365.06;;;9.63;100.00
8717;BME280;4395;48.554;8.820;2023-03-13T01:20:11;95341.88;;;9.47;100.00
8717;BME280;4395;48.554;8.820;2023-03-13T01:22:15;95019.44;;;7.40;100.00
8717;BME280;4395;48.554;8.820;2023-03-13T01:24:18;95360.97;;;9.55;100.00
8717;BME280;4395;48.554;8.820;2023-03-13T01:26:23;95349.13;;;9.46;100.00
8717;BME280;4395;48.554;8.820;2023-03-13T01:28:27;95352.31;;;9.43;100.00
8717;BME280;4395;48.554;8.820;2023-03-13T01:30:30;95343.75;;;9.46;100.00
8717;BME280;4395;48.554;8.820;2023-03-13T01:32:33;95338.66;;;9.45;100.00
8717;BME280;4395;48.554;8.820;2023-03-13T01:34:36;95332.19;;;9.41;100.00
8717;BME280;4395;48.554;8.820;2023-03-13T01:36:41;95331.91;;;9.37;100.00
8717;BME280;4395;48.554;8.820;2023-03-13T01:38:48;95337.25;;;9.37;100.00
8717;BME280;4395;48.554;8.820;2023-03-13T01:40:51;95324.91;;;9.36;100.00
8717;BME280;4395;48.554;8.820;2023-03-13T01:42:56;95324.13;;;9.35;100.00
8717;BME280;4395;48.554;8.820;2023-03-13T01:44:59;95317.94;;;9.35;100.00
8717;BME280;4395;48.554;8.820;2023-03-13T01:47:03;95317.13;;;9.34;100.00
8717;BME280;4395;48.554;8.820;2023-03-13T01:49:28;95294.50;;;9.20;100.00
8717;BME280;4395;48.554;8.820;2023-03-13T01:51:44;95279.97;;;9.11;100.00
8717;BME280;4395;48.554;8.820;2023-03-13T01:53:52;95314.19;;;9.36;100.00
8717;BME280;4395;48.554;8.820;2023-03-13T01:55:57;95314.97;;;9.31;100.00
8717;BME280;4395;48.554;8.820;2023-03-13T01:58:02;95124.94;;;8.14;100.00
8717;BME280;4395;48.554;8.820;2023-03-13T02:00:08;95311.22;;;9.32;100.00
8717;BME280;4395;48.554;8.820;2023-03-13T02:02:15;95267.06;;;9.03;100.00
8717;BME280;4395;48.554;8.820;2023-03-13T02:04:19;95303.69;;;9.29;100.00
8717;BME280;4395;48.554;8.820;2023-03-13T02:06:24;95300.47;;;9.27;100.00
8717;BME280;4395;48.554;8.820;2023-03-13T02:08:31;95257.94;;;9.04;100.00
8717;BME280;4395;48.554;8.820;2023-03-13T02:10:42;95109.41;;;8.11;100.00
8717;BME280;4395;48.554;8.820;2023-03-13T02:12:47;95258.13;;;8.92;100.00
8717;BME280;4395;48.554;8.820;2023-03-13T02:14:50;95295.63;;;9.24;100.00
8717;BME280;4395;48.554;8.820;2023-03-13T02:16:54;95299.91;;;9.25;100.00
8717;BME280;4395;48.554;8.820;2023-03-13T02:18:57;95295.66;;;9.29;100.00
8717;BME280;4395;48.554;8.820;2023-03-13T02:21:07;95294.81;;;9.24;100.00
8717;BME280;4395;48.554;8.820;2023-03-13T02:23:17;95201.38;;;8.58;100.00
8717;BME280;4395;48.554;8.820;2023-03-13T02:25:36;95288.03;;;9.11;100.00
8717;BME280;4395;48.554;8.820;2023-03-13T02:27:42;95252.25;;;8.95;100.00
8717;BME280;4395;48.554;8.820;2023-03-13T02:29:47;95264.41;;;9.08;100.00
8717;BME280;4395;48.554;8.820;2023-03-13T02:31:51;95267.66;;;9.10;100.00
8717;BME280;4395;48.554;8.820;2023-03-13T02:33:54;95148.56;;;8.22;100.00
8717;BME280;4395;48.554;8.820;2023-03-13T02:36:00;95243.19;;;9.01;100.00
8717;BME280;4395;48.554;8.820;2023-03-13T02:38:07;95263.97;;;9.21;100.00
8717;BME280;4395;48.554;8.820;2023-03-13T02:40:13;95254.06;;;9.27;100.00
8717;BME280;4395;48.554;8.820;2023-03-13T02:42:20;95232.88;;;9.25;100.00
8717;BME280;4395;48.554;8.820;2023-03-13T02:44:25;95243.72;;;9.46;100.00
8717;BME280;4395;48.554;8.820;2023-03-13T02:46:28;95216.31;;;9.39;100.00
8717;BME280;4395;48.554;8.820;2023-03-13T02:48:34;95249.16;;;9.61;100.00
8717;BME280;4395;48.554;8.820;2023-03-13T02:50:37;95204.00;;;9.43;100.00
8717;BME280;4395;48.554;8.820;2023-03-13T02:52:42;95233.50;;;9.43;100.00
8717;BME280;4395;48.554;8.820;2023-03-13T02:54:50;95241.16;;;9.71;100.00
8717;BME280;4395;48.554;8.820;2023-03-13T02:56:57;95237.72;;;9.86;100.00
8717;BME280;4395;48.554;8.820;2023-03-13T02:59:03;95234.25;;;9.95;100.00
8717;BME280;4395;48.554;8.820;2023-03-13T03:01:09;95217.88;;;9.97;100.00
8717;BME280;4395;48.554;8.820;2023-03-13T03:03:14;95216.53;;;9.99;100.00
8717;BME280;4395;48.554;8.820;2023-03-13T03:05:17;95210.66;;;10.13;100.00
8717;BME280;4395;48.554;8.820;2023-03-13T03:07:20;95202.06;;;10.00;100.00
8717;BME280;4395;48.554;8.820;2023-03-13T03:09:24;95210.13;;;10.11;100.00
8717;BME280;4395;48.554;8.820;2023-03-13T03:11:31;95199.38;;;10.11;100.00
8717;BME280;4395;48.554;8.820;2023-03-13T03:13:38;95199.94;;;10.13;100.00
8717;BME280;4395;48.554;8.820;2023-03-13T03:15:42;95182.75;;;10.19;100.00
8717;BME280;4395;48.554;8.820;2023-03-13T03:17:46;95177.97;;;10.26;100.00
8717;BME280;4395;48.554;8.820;2023-03-13T03:19:49;95184.69;;;10.28;100.00
8717;BME280;4395;48.554;8.820;2023-03-13T03:21:51;95181.72;;;10.30;100.00
8717;BME280;4395;48.554;8.820;2023-03-13T03:23:54;95179.56;;;10.32;100.00
8717;BME280;4395;48.554;8.820;2023-03-13T03:25:58;95080.19;;;9.76;100.00
8717;BME280;4395;48.554;8.820;2023-03-13T03:28:02;95186.50;;;10.18;100.00
8717;BME280;4395;48.554;8.820;2023-03-13T03:30:06;95149.44;;;9.99;100.00
8717;BME280;4395;48.554;8.820;2023-03-13T03:32:12;95164.19;;;9.97;100.00
8717;BME280;4395;48.554;8.820;2023-03-13T03:34:15;95180.88;;;10.14;100.00
8717;BME280;4395;48.554;8.820;2023-03-13T03:36:20;95182.25;;;10.27;100.00
8717;BME280;4395;48.554;8.820;2023-03-13T03:38:24;95112.88;;;9.68;100.00
8717;BME280;4395;48.554;8.820;2023-03-13T03:40:27;95145.13;;;9.88;100.00
8717;BME280;4395;48.554;8.820;2023-03-13T03:42:31;95185.75;;;10.32;100.00
8717;BME280;4395;48.554;8.820;2023-03-13T03:44:33;95179.56;;;10.32;100.00
8717;BME280;4395;48.554;8.820;2023-03-13T03:46:37;95175.28;;;10.31;100.00
8717;BME280;4395;48.554;8.820;2023-03-13T03:48:42;95166.69;;;10.34;100.00
8717;BME280;4395;48.554;8.820;2023-03-13T03:50:45;95176.63;;;10.39;100.00
8717;BME280;4395;48.554;8.820;2023-03-13T03:52:50;95178.50;;;10.28;100.00
8717;BME280;4395;48.554;8.820;2023-03-13T03:54:53;95170.16;;;10.24;100.00
8717;BME280;4395;48.554;8.820;2023-03-13T03:56:55;95164.53;;;10.26;100.00
8717;BME280;4395;48.554;8.820;2023-03-13T03:58:58;95172.31;;;10.32;100.00
8717;BME280;4395;48.554;8.820;2023-03-13T04:01:14;95161.03;;;10.25;100.00
8717;BME280;4395;48.554;8.820;2023-03-13T04:03:16;95164.00;;;10.24;100.00
8717;BME280;4395;48.554;8.820;2023-03-13T04:05:21;95172.81;;;10.19;100.00
8717;BME280;4395;48.554;8.820;2023-03-13T04:07:24;95159.16;;;10.21;100.00
8717;BME280;4395;48.554;8.820;2023-03-13T04:09:27;95166.41;;;10.25;100.00
8717;BME280;4395;48.554;8.820;2023-03-13T04:11:33;95168.78;;;10.17;100.00
8717;BME280;4395;48.554;8.820;2023-03-13T04:13:37;95169.84;;;10.00;100.00
8717;BME280;4395;48.554;8.820;2023-03-13T04:15:40;95092.22;;;9.58;100.00
8717;BME280;4395;48.554;8.820;2023-03-13T04:17:44;95168.50;;;10.08;100.00
8717;BME280;4395;48.554;8.820;2023-03-13T04:19:48;95165.06;;;10.23;100.00
8717;BME280;4395;48.554;8.820;2023-03-13T04:21:52;95161.84;;;10.21;100.00
8717;BME280;4395;48.554;8.820;2023-03-13T04:23:56;95140.59;;;10.19;100.00
8717;BME280;4395;48.554;8.820;2023-03-13T04:25:58;95167.75;;;10.33;100.00
8717;BME280;4395;48.554;8.820;2023-03-13T04:28:02;95162.38;;;10.38;100.00
8717;BME280;4395;48.554;8.820;2023-03-13T04:30:12;95148.44;;;10.41;100.00
8717;BME280;4395;48.554;8.820;2023-03-13T04:32:25;95150.03;;;10.37;100.00
8717;BME280;4395;48.554;8.820;2023-03-13T04:34:57;95152.22;;;10.40;100.00
8717;BME280;4395;48.554;8.820;2023-03-13T04:37:24;95157.00;;;10.33;100.00
8717;BME280;4395;48.554;8.820;2023-03-13T04:39:37;95153.78;;;10.36;100.00
8717;BME280;4395;48.554;8.820;2023-03-13T04:42:00;95117.81;;;10.22;100.00
8717;BME280;4395;48.554;8.820;2023-03-13T04:44:32;95133.91;;;10.22;100.00
8717;BME280;4395;48.554;8.820;2023-03-13T04:46:58;95158.63;;;10.34;100.00
8717;BME280;4395;48.554;8.820;2023-03-13T04:49:30;95112.69;;;10.10;100.00
8717;BME280;4395;48.554;8.820;2023-03-13T04:51:51;95159.72;;;10.43;100.00
8717;BME280;4395;48.554;8.820;2023-03-13T04:54:14;95156.75;;;10.29;100.00
8717;BME280;4395;48.554;8.820;2023-03-13T04:56:39;95147.91;;;10.44;100.00
8717;BME280;4395;48.554;8.820;2023-03-13T04:59:05;95138.78;;;10.45;100.00
8717;BME280;4395;48.554;8.820;2023-03-13T05:01:27;95148.72;;;10.60;100.00
8717;BME280;4395;48.554;8.820;2023-03-13T05:03:50;95137.16;;;10.59;100.00
8717;BME280;4395;48.554;8.820;2023-03-13T05:06:12;95137.69;;;10.56;100.00
8717;BME280;4395;48.554;8.820;2023-03-13T05:08:29;95137.16;;;10.54;100.00
8717;BME280;4395;48.554;8.820;2023-03-13T05:11:02;95139.84;;;10.65;100.00
8717;BME280;4395;48.554;8.820;2023-03-13T05:13:21;95158.09;;;10.68;100.00
8717;BME280;4395;48.554;8.820;2023-03-13T05:15:30;95138.50;;;10.62;100.00
8717;BME280;4395;48.554;8.820;2023-03-13T05:17:47;95152.19;;;10.60;100.00
8717;BME280;4395;48.554;8.820;2023-03-13T05:20:00;95080.47;;;10.25;100.00
8717;BME280;4395;48.554;8.820;2023-03-13T05:22:13;95139.03;;;10.54;100.00
8717;BME280;4395;48.554;8.820;2023-03-13T05:24:27;95163.22;;;10.64;100.00
8717;BME280;4395;48.554;8.820;2023-03-13T05:26:54;95155.94;;;10.80;100.00
8717;BME280;4395;48.554;8.820;2023-03-13T05:29:09;95133.41;;;10.60;100.00
8717;BME280;4395;48.554;8.820;2023-03-13T05:31:31;95131.25;;;10.57;100.00
8717;BME280;4395;48.554;8.820;2023-03-13T05:33:54;95150.31;;;10.76;100.00
8717;BME280;4395;48.554;8.820;2023-03-13T05:36:15;95130.41;;;10.72;100.00
8717;BME280;4395;48.554;8.820;2023-03-13T05:38:32;95150.06;;;10.62;100.00
8717;BME280;4395;48.554;8.820;2023-03-13T05:40:54;95169.94;;;10.67;100.00
8717;BME280;4395;48.554;8.820;2023-03-13T05:43:11;95158.09;;;10.68;100.00
8717;BME280;4395;48.554;8.820;2023-03-13T05:45:40;95139.84;;;10.70;100.00
8717;BME280;4395;48.554;8.820;2023-03-13T05:48:01;95130.69;;;10.66;100.00
8717;BME280;4395;48.554;8.820;2023-03-13T05:50:22;95124.00;;;10.63;100.00
8717;BME280;4395;48.554;8.820;2023-03-13T05:52:43;95130.72;;;10.50;100.00
8717;BME280;4395;48.554;8.820;2023-03-13T05:54:55;95125.34;;;10.60;100.00
8717;BME280;4395;48.554;8.820;2023-03-13T05:57:16;95131.50;;;10.61;100.00
8717;BME280;4395;48.554;8.820;2023-03-13T05:59:40;95132.06;;;10.43;100.00
8717;BME280;4395;48.554;8.820;2023-03-13T06:02:02;95120.78;;;10.41;100.00
8717;BME280;4395;48.554;8.820;2023-03-13T06:04:10;95134.44;;;10.39;100.00
8717;BME280;4395;48.554;8.820;2023-03-13T06:06:14;95110.03;;;10.41;100.00
8717;BME280;4395;48.554;8.820;2023-03-13T06:08:21;95108.41;;;10.40;100.00
8717;BME280;4395;48.554;8.820;2023-03-13T06:10:24;95110.03;;;10.51;100.00
8717;BME280;4395;48.554;8.820;2023-03-13T06:12:27;95167.53;;;10.50;100.00
8717;BME280;4395;48.554;8.820;2023-03-13T06:14:29;95108.16;;;10.46;100.00
8717;BME280;4395;48.554;8.820;2023-03-13T06:16:55;95108.97;;;10.47;100.00
8717;BME280;4395;48.554;8.820;2023-03-13T06:19:00;95119.16;;;10.50;100.00
8717;BME280;4395;48.554;8.820;2023-03-13T06:21:03;95124.25;;;10.56;100.00
8717;BME280;4395;48.554;8.820;2023-03-13T06:23:05;95128.81;;;10.61;100.00
8717;BME280;4395;48.554;8.820;2023-03-13T06:25:09;95119.16;;;10.60;100.00
8717;BME280;4395;48.554;8.820;2023-03-13T06:27:11;95115.66;;;10.59;100.00
8717;BME280;4395;48.554;8.820;2023-03-13T06:29:14;95088.78;;;10.39;100.00
8717;BME280;4395;48.554;8.820;2023-03-13T06:31:17;95103.84;;;10.60;100.00
8717;BME280;4395;48.554;8.820;2023-03-13T06:33:22;95129.34;;;10.78;100.00
8717;BME280;4395;48.554;8.820;2023-03-13T06:35:24;95128.81;;;10.61;100.00
8717;BME280;4395;48.554;8.820;2023-03-13T06:37:27;95129.63;;;10.61;100.00
8717;BME280;4395;48.554;8.820;2023-03-13T06:39:30;95137.13;;;10.75;100.00
8717;BME280;4395;48.554;8.820;2023-03-13T06:41:33;95144.66;;;10.78;100.00
8717;BME280;4395;48.554;8.820;2023-03-13T06:43:35;95166.16;;;10.62;100.00
8717;BME280;4395;48.554;8.820;2023-03-13T06:45:41;95135.00;;;10.56;100.00
8717;BME280;4395;48.554;8.820;2023-03-13T06:47:43;95122.63;;;10.66;100.00
8717;BME280;4395;48.554;8.820;2023-03-13T06:49:48;95064.63;;;10.34;100.00
8717;BME280;4395;48.554;8.820;2023-03-13T06:51:51;95108.66;;;10.69;100.00
8717;BME280;4395;48.554;8.820;2023-03-13T06:53:53;95118.03;;;10.86;100.00
8717;BME280;4395;48.554;8.820;2023-03-13T06:55:59;95119.94;;;10.76;100.00
8717;BME280;4395;48.554;8.820;2023-03-13T06:58:02;95106.47;;;10.86;100.00
8717;BME280;4395;48.554;8.820;2023-03-13T07:00:06;95123.97;;;10.73;100.00
8717;BME280;4395;48.554;8.820;2023-03-13T07:02:12;95118.88;;;10.67;100.00
8717;BME280;4395;48.554;8.820;2023-03-13T07:04:15;95119.66;;;10.77;100.00
8717;BME280;4395;48.554;8.820;2023-03-13T07:06:19;95126.88;;;10.92;100.00
8717;BME280;4395;48.554;8.820;2023-03-13T07:08:22;95127.16;;;10.95;100.00
8717;BME280;4395;48.554;8.820;2023-03-13T07:10:26;95067.81;;;10.72;100.00
8717;BME280;4395;48.554;8.820;2023-03-13T07:12:28;95123.41;;;10.86;100.00
8717;BME280;4395;48.554;8.820;2023-03-13T07:14:31;95119.09;;;10.90;100.00
8717;BME280;4395;48.554;8.820;2023-03-13T07:16:34;95062.19;;;10.58;100.00
8717;BME280;4395;48.554;8.820;2023-03-13T07:18:37;95120.94;;;11.05;100.00
8717;BME280;4395;48.554;8.820;2023-03-13T07:20:42;95134.88;;;11.17;100.00
8717;BME280;4395;48.554;8.820;2023-03-13T07:22:51;95113.91;;;11.14;100.00
8717;BME280;4395;48.554;8.820;2023-03-13T07:24:54;95116.59;;;11.19;100.00
8717;BME280;4395;48.554;8.820;2023-03-13T07:26:57;95091.38;;;10.95;100.00
8717;BME280;4395;48.554;8.820;2023-03-13T07:29:08;95112.06;;;11.05;100.00
8717;BME280;4395;48.554;8.820;2023-03-13T07:31:12;95111.19;;;11.19;100.00
8717;BME280;4395;48.554;8.820;2023-03-13T07:33:16;95113.06;;;11.24;100.00
8717;BME280;4395;48.554;8.820;2023-03-13T07:35:19;95144.56;;;11.13;100.00
8717;BME280;4395;48.554;8.820;2023-03-13T07:37:22;95109.03;;;11.21;100.00
8717;BME280;4395;48.554;8.820;2023-03-13T07:39:26;95109.56;;;11.23;100.00
8717;BME280;4395;48.554;8.820;2023-03-13T07:41:28;95125.75;;;11.13;100.00
8717;BME280;4395;48.554;8.820;2023-03-13T07:43:31;95119.00;;;11.21;100.00
8717;BME280;4395;48.554;8.820;2023-03-13T07:45:35;95115.50;;;11.20;100.00
8717;BME280;4395;48.554;8.820;2023-03-13T07:47:38;95108.03;;;11.07;100.00
8717;BME280;4395;48.554;8.820;2023-03-13T07:49:40;95118.16;;;11.31;100.00
8717;BME280;4395;48.554;8.820;2023-03-13T07:51:44;95120.78;;;11.46;100.00
8717;BME280;4395;48.554;8.820;2023-03-13T07:53:48;95108.41;;;11.45;100.00
8717;BME280;4395;48.554;8.820;2023-03-13T07:55:53;95122.41;;;11.42;100.00
8717;BME280;4395;48.554;8.820;2023-03-13T07:57:56;95131.53;;;11.46;100.00
8717;BME280;4395;48.554;8.820;2023-03-13T07:59:59;95128.88;;;11.41;100.00
8717;BME280;4395;48.554;8.820;2023-03-13T08:02:12;95104.56;;;10.97;100.00
8717;BME280;4395;48.554;8.820;2023-03-13T08:04:16;95055.34;;;11.01;100.00
8717;BME280;4395;48.554;8.820;2023-03-13T08:06:21;95114.28;;;11.52;100.00
8717;BME280;4395;48.554;8.820;2023-03-13T08:08:24;95099.09;;;11.71;100.00
8717;BME280;4395;48.554;8.820;2023-03-13T08:10:27;95089.03;;;11.92;100.00
8717;BME280;4395;48.554;8.820;2023-03-13T08:12:31;95076.63;;;11.96;100.00
8717;BME280;4395;48.554;8.820;2023-03-13T08:14:34;95069.97;;;11.88;100.00
8717;BME280;4395;48.554;8.820;2023-03-13T08:16:37;95076.88;;;12.00;100.00
8717;BME280;4395;48.554;8.820;2023-03-13T08:18:41;95068.31;;;11.93;100.00
8717;BME280;4395;48.554;8.820;2023-03-13T08:20:44;95081.06;;;12.16;100.00
8717;BME280;4395;48.554;8.820;2023-03-13T08:22:47;95083.63;;;12.31;100.00
8717;BME280;4395;48.554;8.820;2023-03-13T08:24:50;95083.34;;;11.99;100.00
8717;BME280;4395;48.554;8.820;2023-03-13T08:26:53;95095.13;;;12.08;100.00
8717;BME280;4395;48.554;8.820;2023-03-13T08:28:59;95079.16;;;11.82;100.00
8717;BME280;4395;48.554;8.820;2023-03-13T08:31:07;95097.94;;;11.93;100.00
8717;BME280;4395;48.554;8.820;2023-03-13T08:33:10;95093.31;;;11.98;100.00
8717;BME280;4395;48.554;8.820;2023-03-13T08:35:13;95088.66;;;12.09;100.00
8717;BME280;4395;48.554;8.820;2023-03-13T08:37:16;95080.16;;;12.26;100.00
8717;BME280;4395;48.554;8.820;2023-03-13T08:39:19;95082.38;;;12.18;100.00
8717;BME280;4395;48.554;8.820;2023-03-13T08:41:24;95100.34;;;12.28;100.00
8717;BME280;4395;48.554;8.820;2023-03-13T08:43:27;95081.28;;;12.53;100.00
8717;BME280;4395;48.554;8.820;2023-03-13T08:45:31;95087.31;;;12.40;100.00
8717;BME280;4395;48.554;8.820;2023-03-13T08:47:34;95105.56;;;12.48;100.00
8717;BME280;4395;48.554;8.820;2023-03-13T08:49:36;95071.66;;;12.42;100.00
8717;BME280;4395;48.554;8.820;2023-03-13T08:51:39;95093.56;;;12.65;100.00
8717;BME280;4395;48.554;8.820;2023-03-13T08:53:43;95098.03;;;12.74;100.00
8717;BME280;4395;48.554;8.820;2023-03-13T08:55:51;95101.69;;;12.60;100.00
8717;BME280;4395;48.554;8.820;2023-03-13T08:57:54;95101.94;;;12.63;100.00
8717;BME280;4395;48.554;8.820;2023-03-13T08:59:56;95091.09;;;12.39;100.00
8717;BME280;4395;48.554;8.820;2023-03-13T09:02:01;95077.75;;;12.24;100.00
8717;BME280;4395;48.554;8.820;2023-03-13T09:04:04;95105.72;;;12.62;100.00
8717;BME280;4395;48.554;8.820;2023-03-13T09:06:08;95095.06;;;12.76;100.00
8717;BME280;4395;48.554;8.820;2023-03-13T09:08:11;95091.41;;;12.91;100.00
8717;BME280;4395;48.554;8.820;2023-03-13T09:10:14;95105.06;;;12.99;100.00
8717;BME280;4395;48.554;8.820;2023-03-13T09:12:17;95095.69;;;12.68;100.00
8717;BME280;4395;48.554;8.820;2023-03-13T09:14:31;95095.88;;;12.76;100.00
8717;BME280;4395;48.554;8.820;2023-03-13T09:16:37;95074.75;;;13.12;100.00
8717;BME280;4395;48.554;8.820;2023-03-13T09:18:42;95069.53;;;13.21;100.00
8717;BME280;4395;48.554;8.820;2023-03-13T09:20:44;95088.38;;;13.26;100.00
8717;BME280;4395;48.554;8.820;2023-03-13T09:22:49;95105.56;;;13.54;100.00
8717;BME280;4395;48.554;8.820;2023-03-13T09:24:52;95108.06;;;13.69;100.00
8717;BME280;4395;48.554;8.820;2023-03-13T09:26:54;95086.28;;;13.42;100.00
8717;BME280;4395;48.554;8.820;2023-03-13T09:29:02;95079.00;;;13.61;100.00
8717;BME280;4395;48.554;8.820;2023-03-13T09:31:05;95096.97;;;13.90;100.00
8717;BME280;4395;48.554;8.820;2023-03-13T09:33:09;95115.50;;;13.77;100.00
8717;BME280;4395;48.554;8.820;2023-03-13T09:35:13;95116.97;;;13.89;100.00
8717;BME280;4395;48.554;8.820;2023-03-13T09:37:16;95104.84;;;13.67;100.00
8717;BME280;4395;48.554;8.820;2023-03-13T09:39:19;95095.22;;;13.99;100.00
8717;BME280;4395;48.554;8.820;2023-03-13T09:41:25;95090.44;;;14.28;100.00
8717;BME280;4395;48.554;8.820;2023-03-13T09:43:36;95066.91;;;14.47;100.00
8717;BME280;4395;48.554;8.820;2023-03-13T09:45:42;95098.69;;;14.69;100.00
8717;BME280;4395;48.554;8.820;2023-03-13T09:47:50;95082.91;;;14.44;100.00
8717;BME280;4395;48.554;8.820;2023-03-13T09:49:56;95042.88;;;14.27;100.00
8717;BME280;4395;48.554;8.820;2023-03-13T09:52:14;95069.78;;;14.19;100.00
8717;BME280;4395;48.554;8.820;2023-03-13T09:54:24;95005.47;;;14.34;100.00
8717;BME280;4395;48.554;8.820;2023-03-13T09:56:30;95064.59;;;14.55;100.00
8717;BME280;4395;48.554;8.820;2023-03-13T09:58:35;95069.28;;;15.09;100.00
8717;BME280;4395;48.554;8.820;2023-03-13T10:00:42;95072.88;;;15.32;100.00
8717;BME280;4395;48.554;8.820;2023-03-13T10:02:54;95067.88;;;15.66;99.73
8717;BME280;4395;48.554;8.820;2023-03-13T10:05:13;95089.72;;;15.15;99.77
8717;BME280;4395;48.554;8.820;2023-03-13T10:07:19;95076.91;;;15.21;100.00
8717;BME280;4395;48.554;8.820;2023-03-13T10:09:27;95065.97;;;15.39;100.00
8717;BME280;4395;48.554;8.820;2023-03-13T10:11:35;95064.50;;;15.61;100.00
8717;BME280;4395;48.554;8.820;2023-03-13T10:13:45;95042.59;;;15.71;97.28
8717;BME280;4395;48.554;8.820;2023-03-13T10:15:51;95049.81;;;15.75;97.12
8717;BME280;4395;48.554;8.820;2023-03-13T10:17:58;95038.66;;;15.77;97.75
8717;BME280;4395;48.554;8.820;2023-03-13T10:20:16;95053.06;;;16.22;95.80
8717;BME280;4395;48.554;8.820;2023-03-13T10:22:26;95040.78;;;16.25;92.93
8717;BME280;4395;48.554;8.820;2023-03-13T10:24:32;95030.00;;;16.11;94.11
8717;BME280;4395;48.554;8.820;2023-03-13T10:26:37;95024.06;;;16.54;93.24
8717;BME280;4395;48.554;8.820;2023-03-13T10:28:39;95019.75;;;16.75;91.53
8717;BME280;4395;48.554;8.820;2023-03-13T10:30:46;95016.28;;;16.92;89.41
8717;BME280;4395;48.554;8.820;2023-03-13T10:32:49;95011.81;;;17.44;83.59
8717;BME280;4395;48.554;8.820;2023-03-13T10:34:55;94991.50;;;16.76;85.67
8717;BME280;4395;48.554;8.820;2023-03-13T10:36:59;95001.72;;;16.79;87.98
8717;BME280;4395;48.554;8.820;2023-03-13T10:39:07;94949.19;;;16.66;87.77
8717;BME280;4395;48.554;8.820;2023-03-13T10:41:27;94999.28;;;17.09;84.62
8717;BME280;4395;48.554;8.820;2023-03-13T10:43:31;94997.59;;;17.47;83.58
8717;BME280;4395;48.554;8.820;2023-03-13T10:45:36;94987.75;;;18.03;81.00
8717;BME280;4395;48.554;8.820;2023-03-13T10:47:39;95001.81;;;17.71;82.35
8717;BME280;4395;48.554;8.820;2023-03-13T10:49:48;94991.03;;;17.31;84.37
8717;BME280;4395;48.554;8.820;2023-03-13T10:51:52;94964.06;;;17.43;84.73
8717;BME280;4395;48.554;8.820;2023-03-13T10:53:56;94903.50;;;17.17;85.77
8717;BME280;4395;48.554;8.820;2023-03-13T10:56:07;94957.50;;;18.13;79.14
8717;BME280;4395;48.554;8.820;2023-03-13T10:58:17;94943.03;;;18.56;78.46
8717;BME280;4395;48.554;8.820;2023-03-13T11:00:28;94949.94;;;18.45;76.79
8717;BME280;4395;48.554;8.820;2023-03-13T11:02:32;94943.59;;;18.15;78.58
8717;BME280;4395;48.554;8.820;2023-03-13T11:04:36;94931.06;;;18.48;79.13
8717;BME280;4395;48.554;8.820;2023-03-13T11:06:39;94945.38;;;18.75;77.25
8717;BME280;4395;48.554;8.820;2023-03-13T11:08:42;94951.06;;;18.44;78.10
8717;BME280;4395;48.554;8.820;2023-03-13T11:10:56;94965.50;;;18.36;76.51
8717;BME280;4395;48.554;8.820;2023-03-13T11:13:01;94934.00;;;18.26;75.81
8717;BME280;4395;48.554;8.820;2023-03-13T11:15:12;94896.16;;;17.26;78.59
8717;BME280;4395;48.554;8.820;2023-03-13T11:17:23;94911.50;;;17.56;81.38
8717;BME280;4395;48.554;8.820;2023-03-13T11:19:36;94913.72;;;18.70;77.44
8717;BME280;4395;48.554;8.820;2023-03-13T11:21:51;94911.28;;;19.07;73.91
8717;BME280;4395;48.554;8.820;2023-03-13T11:24:05;94853.09;;;18.90;74.29
8717;BME280;4395;48.554;8.820;2023-03-13T11:26:11;94900.13;;;19.20;69.58